Wunstorf, Germany

3:24 PM CET on October 31, 2014 (GMT +0100)
Neustadt | Change Station
CLOSE
Current Station
Personal Weather Station
Location: Neustadt, NIEDERSACHSEN
Elevation: 131 ft
Nearby Weather Stations

Elev 131 ft 52.51 °N, 9.44 °E | Updated 5 seconds ago

Clear
Clear
64.2 °F
Feels Like 64.2 °F
N
2.7
Wind Variable Wind from South
Gusts 4.9 mph

Today
High -- | Low -- °F
--% Chance of Precip.
Yesterday
High -- | Low -- °F
Precip. -- in
7:16 AM 4:54 PM
First Quarter, 55% visible
Pressure 30.18 in
Visibility -9999.0 miles
Clouds
Dew Point 55 °F
Humidity 72%
Rainfall 0.00 in
Snow Depth Not available.
UV 1.0 out of 12
Pollen Not available.
Air Quality Not available.
Flu Activity Not available.
METAR EDDV 311420Z 16003KT CAVOK 17/13 Q1022 NOSIG

More Conditions Fewer Conditions

Pressure 30.18 in
Visibility -9999.0 miles
Clouds
Dew Point 55 °F
Humidity 72%
Rainfall 0.00 in
Snow Depth Not available.
UV 1.0 out of 12
Pollen Not available.
Air Quality Not available.
Flu Activity Not available.
METAR EDDV 311420Z 16003KT CAVOK 17/13 Q1022 NOSIG

More Conditions Fewer Conditions

10-Day Weather Forecast

Almanac

Astronomy

Oct. 31, 2014 Rise Set
Actual Time
Civil Twilight
Nautical Twilight
Astronomical Twilight
Moon
Length of Visible Light
Length of Day
Tomorrow will be .
, % of the Moon is Illuminated

Today's Extremes

Country Highs Country Lows

Community

WunderPhotos

Upload Photos

1,766,617 photos uploaded!

WunderBlogs® & News

Nearby

Air Quality

  Air Quality AQ Index Pollutant
Not available.

Snow Depth

Station Depth Elevation

Earthquake Activity

City Distance Mag. Time & Date
Minimum magnitude displayed is 2.5.

Coastal Water Temperatures

Place Temperature

Nearby Weather Stations